sensor_id;sensor_type;location;lat;lon;timestamp;pressure;altitude;pressure_sealevel;temperature;humidity
61474;BME280;53694;49.784;30.150;2023-09-12T00:00:25;99769.19;;;13.56;68.87
61474;BME280;53694;49.784;30.150;2023-09-12T00:01:26;99768.27;;;13.44;68.92
61474;BME280;53694;49.784;30.150;2023-09-12T00:02:28;99768.95;;;13.34;69.46
61474;BME280;53694;49.784;30.150;2023-09-12T00:03:29;99768.06;;;13.27;69.68
61474;BME280;53694;49.784;30.150;2023-09-12T00:04:31;99771.44;;;13.16;69.63
61474;BME280;53694;49.784;30.150;2023-09-12T00:05:32;99772.91;;;13.07;69.97
61474;BME280;53694;49.784;30.150;2023-09-12T00:06:34;99772.39;;;12.97;70.12
61474;BME280;53694;49.784;30.150;2023-09-12T00:07:36;99772.30;;;12.90;70.51
61474;BME280;53694;49.784;30.150;2023-09-12T00:08:37;99776.11;;;12.82;70.89
61474;BME280;53694;49.784;30.150;2023-09-12T00:09:39;99777.73;;;12.83;71.42
61474;BME280;53694;49.784;30.150;2023-09-12T00:10:40;99775.54;;;12.96;71.46
61474;BME280;53694;49.784;30.150;2023-09-12T00:11:41;99775.83;;;13.21;71.11
61474;BME280;53694;49.784;30.150;2023-09-12T00:12:43;99780.50;;;13.84;69.65
61474;BME280;53694;49.784;30.150;2023-09-12T00:13:44;99780.50;;;13.84;69.65
61474;BME280;53694;49.784;30.150;2023-09-12T00:14:46;99777.65;;;14.18;68.61
61474;BME280;53694;49.784;30.150;2023-09-12T00:15:47;99783.41;;;14.46;67.26
61474;BME280;53694;49.784;30.150;2023-09-12T00:16:49;99776.42;;;14.60;66.57
61474;BME280;53694;49.784;30.150;2023-09-12T00:17:50;99772.47;;;14.61;65.92
61474;BME280;53694;49.784;30.150;2023-09-12T00:18:52;99763.73;;;14.52;65.96
61474;BME280;53694;49.784;30.150;2023-09-12T00:19:53;99780.08;;;14.23;65.89
61474;BME280;53694;49.784;30.150;2023-09-12T00:20:55;99780.08;;;14.23;65.89
61474;BME280;53694;49.784;30.150;2023-09-12T00:21:56;99773.59;;;14.05;66.33
61474;BME280;53694;49.784;30.150;2023-09-12T00:22:58;99776.20;;;13.87;66.58
61474;BME280;53694;49.784;30.150;2023-09-12T00:23:59;99782.34;;;13.69;66.99
61474;BME280;53694;49.784;30.150;2023-09-12T00:25:01;99785.31;;;13.54;67.85
61474;BME280;53694;49.784;30.150;2023-09-12T00:26:02;99774.13;;;13.39;68.46
61474;BME280;53694;49.784;30.150;2023-09-12T00:27:05;99779.05;;;13.23;68.70
61474;BME280;53694;49.784;30.150;2023-09-12T00:28:06;99782.40;;;13.09;69.03
61474;BME280;53694;49.784;30.150;2023-09-12T00:29:08;99781.41;;;12.94;69.48
61474;BME280;53694;49.784;30.150;2023-09-12T00:30:11;99779.25;;;12.81;69.96
61474;BME280;53694;49.784;30.150;2023-09-12T00:31:12;99785.42;;;12.70;70.51
61474;BME280;53694;49.784;30.150;2023-09-12T00:32:14;99776.58;;;12.58;70.71
61474;BME280;53694;49.784;30.150;2023-09-12T00:33:16;99785.84;;;12.46;71.28
61474;BME280;53694;49.784;30.150;2023-09-12T00:34:17;99773.18;;;12.41;71.69
61474;BME280;53694;49.784;30.150;2023-09-12T00:35:19;99785.11;;;12.49;72.12
61474;BME280;53694;49.784;30.150;2023-09-12T00:36:20;99783.81;;;12.69;72.16
61474;BME280;53694;49.784;30.150;2023-09-12T00:37:22;99779.09;;;12.96;71.45
61474;BME280;53694;49.784;30.150;2023-09-12T00:38:23;99784.56;;;13.23;70.41
61474;BME280;53694;49.784;30.150;2023-09-12T00:39:25;99784.91;;;13.52;69.65
61474;BME280;53694;49.784;30.150;2023-09-12T00:40:27;99783.61;;;13.79;68.88
61474;BME280;53694;49.784;30.150;2023-09-12T00:41:28;99781.88;;;14.05;67.74
61474;BME280;53694;49.784;30.150;2023-09-12T00:42:30;99776.89;;;14.21;66.82
61474;BME280;53694;49.784;30.150;2023-09-12T00:43:31;99769.83;;;14.27;66.26
61474;BME280;53694;49.784;30.150;2023-09-12T00:44:33;99769.03;;;14.23;66.25
61474;BME280;53694;49.784;30.150;2023-09-12T00:45:35;99775.24;;;14.13;66.71
61474;BME280;53694;49.784;30.150;2023-09-12T00:46:37;99772.41;;;14.02;66.95
61474;BME280;53694;49.784;30.150;2023-09-12T00:47:40;99773.47;;;13.90;67.14
61474;BME280;53694;49.784;30.150;2023-09-12T00:48:42;99775.72;;;13.78;67.14
61474;BME280;53694;49.784;30.150;2023-09-12T00:49:45;99790.18;;;13.67;67.51
61474;BME280;53694;49.784;30.150;2023-09-12T00:50:49;99784.12;;;13.55;67.75
61474;BME280;53694;49.784;30.150;2023-09-12T00:51:51;99788.75;;;13.43;68.09
61474;BME280;53694;49.784;30.150;2023-09-12T00:52:53;99781.56;;;13.35;68.91
61474;BME280;53694;49.784;30.150;2023-09-12T00:53:55;99783.83;;;13.26;69.45
61474;BME280;53694;49.784;30.150;2023-09-12T00:54:57;99776.59;;;13.18;69.78
61474;BME280;53694;49.784;30.150;2023-09-12T00:55:59;99778.47;;;13.10;69.70
61474;BME280;53694;49.784;30.150;2023-09-12T00:57:01;99774.03;;;13.02;69.72
61474;BME280;53694;49.784;30.150;2023-09-12T00:58:03;99778.65;;;12.94;69.96
61474;BME280;53694;49.784;30.150;2023-09-12T00:59:05;99774.64;;;12.88;70.16
61474;BME280;53694;49.784;30.150;2023-09-12T01:00:11;99773.80;;;12.84;70.67
61474;BME280;53694;49.784;30.150;2023-09-12T01:01:13;99772.95;;;12.80;70.73
61474;BME280;53694;49.784;30.150;2023-09-12T01:02:14;99774.20;;;12.86;71.03
61474;BME280;53694;49.784;30.150;2023-09-12T01:03:16;99778.02;;;13.05;70.86
61474;BME280;53694;49.784;30.150;2023-09-12T01:04:18;99780.34;;;13.33;70.45
61474;BME280;53694;49.784;30.150;2023-09-12T01:05:20;99779.97;;;13.68;69.62
61474;BME280;53694;49.784;30.150;2023-09-12T01:06:24;99777.53;;;14.04;68.34
61474;BME280;53694;49.784;30.150;2023-09-12T01:07:26;99775.84;;;14.40;67.34
61474;BME280;53694;49.784;30.150;2023-09-12T01:08:28;99772.55;;;14.71;66.43
61474;BME280;53694;49.784;30.150;2023-09-12T01:09:29;99776.59;;;14.88;65.64
61474;BME280;53694;49.784;30.150;2023-09-12T01:10:31;99772.67;;;14.93;64.64
61474;BME280;53694;49.784;30.150;2023-09-12T01:11:33;99780.94;;;14.89;64.33
61474;BME280;53694;49.784;30.150;2023-09-12T01:12:35;99777.73;;;14.80;64.49
61474;BME280;53694;49.784;30.150;2023-09-12T01:13:37;99774.89;;;14.69;64.77
61474;BME280;53694;49.784;30.150;2023-09-12T01:14:38;99769.70;;;14.57;65.02
61474;BME280;53694;49.784;30.150;2023-09-12T01:15:41;99769.59;;;14.46;65.38
61474;BME280;53694;49.784;30.150;2023-09-12T01:16:43;99778.17;;;14.34;66.05
61474;BME280;53694;49.784;30.150;2023-09-12T01:17:45;99765.84;;;14.21;66.34
61474;BME280;53694;49.784;30.150;2023-09-12T01:18:47;99767.35;;;14.11;66.68
61474;BME280;53694;49.784;30.150;2023-09-12T01:19:49;99770.44;;;14.03;66.71
61474;BME280;53694;49.784;30.150;2023-09-12T01:21:06;99768.35;;;13.92;66.74
61474;BME280;53694;49.784;30.150;2023-09-12T01:22:52;99767.88;;;13.83;66.99
61474;BME280;53694;49.784;30.150;2023-09-12T01:23:37;99770.95;;;13.74;67.15
61474;BME280;53694;49.784;30.150;2023-09-12T01:27:27;99777.78;;;13.50;68.26
61474;BME280;53694;49.784;30.150;2023-09-12T01:28:30;99770.63;;;13.42;68.15
61474;BME280;53694;49.784;30.150;2023-09-12T01:29:33;99770.94;;;13.37;68.27
61474;BME280;53694;49.784;30.150;2023-09-12T01:30:36;99771.27;;;13.32;68.65
61474;BME280;53694;49.784;30.150;2023-09-12T01:31:39;99765.31;;;13.27;68.73
61474;BME280;53694;49.784;30.150;2023-09-12T01:32:42;99768.38;;;13.21;69.26
61474;BME280;53694;49.784;30.150;2023-09-12T01:33:44;99771.08;;;13.18;69.45
61474;BME280;53694;49.784;30.150;2023-09-12T01:34:45;99767.10;;;13.15;69.50
61474;BME280;53694;49.784;30.150;2023-09-12T01:35:47;99761.97;;;13.14;69.36
61474;BME280;53694;49.784;30.150;2023-09-12T01:36:48;99771.42;;;13.13;69.69
61474;BME280;53694;49.784;30.150;2023-09-12T01:37:50;99767.83;;;13.09;69.96
61474;BME280;53694;49.784;30.150;2023-09-12T01:38:52;99770.14;;;13.07;70.12
61474;BME280;53694;49.784;30.150;2023-09-12T01:39:54;99770.89;;;13.04;70.42
61474;BME280;53694;49.784;30.150;2023-09-12T01:40:56;99774.41;;;13.00;70.11
61474;BME280;53694;49.784;30.150;2023-09-12T01:41:58;99767.73;;;13.01;70.08
61474;BME280;53694;49.784;30.150;2023-09-12T01:43:01;99778.92;;;13.16;69.89
61474;BME280;53694;49.784;30.150;2023-09-12T01:44:06;99772.95;;;13.40;69.48
61474;BME280;53694;49.784;30.150;2023-09-12T01:45:10;99777.50;;;14.00;67.30
61474;BME280;53694;49.784;30.150;2023-09-12T01:46:14;99777.50;;;14.00;67.30
61474;BME280;53694;49.784;30.150;2023-09-12T01:47:17;99765.45;;;14.19;66.62
61474;BME280;53694;49.784;30.150;2023-09-12T01:48:22;99768.21;;;14.22;65.98
61474;BME280;53694;49.784;30.150;2023-09-12T01:49:26;99768.20;;;14.19;65.31
61474;BME280;53694;49.784;30.150;2023-09-12T01:50:28;99770.47;;;14.06;65.08
61474;BME280;53694;49.784;30.150;2023-09-12T01:51:30;99773.05;;;13.88;65.18
61474;BME280;53694;49.784;30.150;2023-09-12T01:52:32;99770.08;;;13.67;65.39
61474;BME280;53694;49.784;30.150;2023-09-12T01:53:34;99779.70;;;13.46;65.96
61474;BME280;53694;49.784;30.150;2023-09-12T01:54:38;99776.70;;;13.25;66.87
61474;BME280;53694;49.784;30.150;2023-09-12T01:55:44;99770.89;;;13.04;67.76
61474;BME280;53694;49.784;30.150;2023-09-12T01:56:46;99767.11;;;12.85;68.22
61474;BME280;53694;49.784;30.150;2023-09-12T01:57:49;99762.15;;;12.68;68.97
61474;BME280;53694;49.784;30.150;2023-09-12T01:58:50;99773.33;;;12.52;69.60
61474;BME280;53694;49.784;30.150;2023-09-12T01:59:52;99769.57;;;12.37;70.09
61474;BME280;53694;49.784;30.150;2023-09-12T02:00:54;99765.78;;;12.22;70.66
61474;BME280;53694;49.784;30.150;2023-09-12T02:01:56;99766.42;;;12.12;71.49
61474;BME280;53694;49.784;30.150;2023-09-12T02:02:57;99764.05;;;12.11;72.10
61474;BME280;53694;49.784;30.150;2023-09-12T02:03:59;99768.12;;;12.20;72.12
61474;BME280;53694;49.784;30.150;2023-09-12T02:05:16;99766.44;;;12.39;71.76
61474;BME280;53694;49.784;30.150;2023-09-12T02:06:18;99778.27;;;12.66;71.08
61474;BME280;53694;49.784;30.150;2023-09-12T02:07:21;99766.94;;;13.01;70.32
61474;BME280;53694;49.784;30.150;2023-09-12T02:08:24;99775.21;;;13.31;69.50
61474;BME280;53694;49.784;30.150;2023-09-12T02:09:26;99770.03;;;13.63;68.54
61474;BME280;53694;49.784;30.150;2023-09-12T02:10:27;99770.32;;;13.92;67.67
61474;BME280;53694;49.784;30.150;2023-09-12T02:11:29;99761.86;;;14.15;66.72
61474;BME280;53694;49.784;30.150;2023-09-12T02:12:33;99765.09;;;14.24;65.46
61474;BME280;53694;49.784;30.150;2023-09-12T02:13:35;99767.42;;;14.22;64.97
61474;BME280;53694;49.784;30.150;2023-09-12T02:14:36;99771.66;;;14.09;64.83
61474;BME280;53694;49.784;30.150;2023-09-12T02:15:38;99763.89;;;13.94;65.33
61474;BME280;53694;49.784;30.150;2023-09-12T02:16:39;99763.89;;;13.77;65.91
61474;BME280;53694;49.784;30.150;2023-09-12T02:17:41;99771.59;;;13.61;66.02
61474;BME280;53694;49.784;30.150;2023-09-12T02:18:42;99770.63;;;13.42;66.41
61474;BME280;53694;49.784;30.150;2023-09-12T02:19:47;99765.06;;;13.09;66.79
61474;BME280;53694;49.784;30.150;2023-09-12T02:20:48;99765.06;;;13.09;66.79
61474;BME280;53694;49.784;30.150;2023-09-12T02:21:50;99772.67;;;12.89;67.12
61474;BME280;53694;49.784;30.150;2023-09-12T02:22:51;99767.49;;;12.57;68.58
61474;BME280;53694;49.784;30.150;2023-09-12T02:23:53;99767.49;;;12.57;68.58
61474;BME280;53694;49.784;30.150;2023-09-12T02:24:54;99763.74;;;12.42;68.77
61474;BME280;53694;49.784;30.150;2023-09-12T02:25:56;99770.63;;;12.29;69.18
61474;BME280;53694;49.784;30.150;2023-09-12T02:26:57;99769.17;;;12.12;69.83
61474;BME280;53694;49.784;30.150;2023-09-12T02:27:59;99775.23;;;11.98;70.17
61474;BME280;53694;49.784;30.150;2023-09-12T02:29:00;99772.66;;;11.86;70.77
61474;BME280;53694;49.784;30.150;2023-09-12T02:30:02;99766.38;;;11.66;71.84
61474;BME280;53694;49.784;30.150;2023-09-12T02:31:09;99766.38;;;11.66;71.84
61474;BME280;53694;49.784;30.150;2023-09-12T02:32:11;99769.61;;;11.72;71.81
61474;BME280;53694;49.784;30.150;2023-09-12T02:33:12;99763.30;;;11.91;71.53
61474;BME280;53694;49.784;30.150;2023-09-12T02:34:14;99764.87;;;12.15;70.76
61474;BME280;53694;49.784;30.150;2023-09-12T02:35:15;99765.23;;;12.36;70.08
61474;BME280;53694;49.784;30.150;2023-09-12T02:36:17;99762.42;;;12.59;69.42
61474;BME280;53694;49.784;30.150;2023-09-12T02:37:19;99767.50;;;12.84;69.05
61474;BME280;53694;49.784;30.150;2023-09-12T02:38:20;99772.16;;;13.10;68.29
61474;BME280;53694;49.784;30.150;2023-09-12T02:39:22;99766.48;;;13.25;67.36
61474;BME280;53694;49.784;30.150;2023-09-12T02:40:24;99771.27;;;13.32;66.96
61474;BME280;53694;49.784;30.150;2023-09-12T02:41:25;99770.08;;;13.30;67.01
61474;BME280;53694;49.784;30.150;2023-09-12T02:42:27;99779.36;;;13.18;67.31
61474;BME280;53694;49.784;30.150;2023-09-12T02:43:28;99774.48;;;12.78;67.48
61474;BME280;53694;49.784;30.150;2023-09-12T02:44:30;99774.48;;;12.78;67.48
61474;BME280;53694;49.784;30.150;2023-09-12T02:45:32;99769.89;;;12.59;68.34
61474;BME280;53694;49.784;30.150;2023-09-12T02:46:36;99772.39;;;12.41;68.85
61474;BME280;53694;49.784;30.150;2023-09-12T02:47:37;99770.50;;;12.22;69.43
61474;BME280;53694;49.784;30.150;2023-09-12T02:48:39;99776.95;;;12.07;70.36
61474;BME280;53694;49.784;30.150;2023-09-12T02:49:40;99772.35;;;11.91;70.78
61474;BME280;53694;49.784;30.150;2023-09-12T02:50:42;99775.25;;;11.79;71.01
61474;BME280;53694;49.784;30.150;2023-09-12T02:51:45;99780.69;;;11.75;71.92
61474;BME280;53694;49.784;30.150;2023-09-12T02:52:47;99773.83;;;11.85;71.78
61474;BME280;53694;49.784;30.150;2023-09-12T02:53:48;99776.12;;;12.06;71.74
61474;BME280;53694;49.784;30.150;2023-09-12T02:54:50;99778.16;;;12.32;70.89
61474;BME280;53694;49.784;30.150;2023-09-12T02:55:51;99780.18;;;12.62;70.00
61474;BME280;53694;49.784;30.150;2023-09-12T02:56:53;99783.31;;;12.90;69.40
61474;BME280;53694;49.784;30.150;2023-09-12T02:57:55;99782.11;;;13.18;68.61
61474;BME280;53694;49.784;30.150;2023-09-12T02:58:56;99782.40;;;13.39;67.44
61474;BME280;53694;49.784;30.150;2023-09-12T02:59:58;99785.66;;;13.48;67.32
61474;BME280;53694;49.784;30.150;2023-09-12T03:00:59;99788.80;;;13.47;67.21
61474;BME280;53694;49.784;30.150;2023-09-12T03:02:01;99780.30;;;13.29;67.11
61474;BME280;53694;49.784;30.150;2023-09-12T03:03:03;99780.30;;;13.29;67.11
61474;BME280;53694;49.784;30.150;2023-09-12T03:04:05;99789.95;;;13.16;67.57
61474;BME280;53694;49.784;30.150;2023-09-12T03:05:07;99782.69;;;13.00;67.04
61474;BME280;53694;49.784;30.150;2023-09-12T03:06:09;99789.55;;;12.84;67.51
61474;BME280;53694;49.784;30.150;2023-09-12T03:07:10;99783.02;;;12.69;68.05
61474;BME280;53694;49.784;30.150;2023-09-12T03:08:12;99780.00;;;12.51;68.16
61474;BME280;53694;49.784;30.150;2023-09-12T03:09:13;99782.63;;;12.17;69.07
61474;BME280;53694;49.784;30.150;2023-09-12T03:10:15;99782.63;;;12.17;69.07
61474;BME280;53694;49.784;30.150;2023-09-12T03:11:17;99780.36;;;12.00;69.65
61474;BME280;53694;49.784;30.150;2023-09-12T03:12:18;99776.93;;;11.84;69.95
61474;BME280;53694;49.784;30.150;2023-09-12T03:13:20;99783.67;;;11.67;70.45
61474;BME280;53694;49.784;30.150;2023-09-12T03:14:21;99788.05;;;11.48;70.98
61474;BME280;53694;49.784;30.150;2023-09-12T03:15:23;99786.16;;;11.33;71.58
61474;BME280;53694;49.784;30.150;2023-09-12T03:16:24;99776.18;;;11.25;72.57
61474;BME280;53694;49.784;30.150;2023-09-12T03:17:28;99775.54;;;11.32;72.84
61474;BME280;53694;49.784;30.150;2023-09-12T03:18:29;99773.92;;;11.50;72.66
61474;BME280;53694;49.784;30.150;2023-09-12T03:19:31;99777.14;;;11.75;72.28
61474;BME280;53694;49.784;30.150;2023-09-12T03:20:32;99780.44;;;12.04;71.47
61474;BME280;53694;49.784;30.150;2023-09-12T03:21:34;99777.71;;;12.30;70.42
61474;BME280;53694;49.784;30.150;2023-09-12T03:22:35;99778.89;;;12.56;69.68
61474;BME280;53694;49.784;30.150;2023-09-12T03:23:36;99783.59;;;12.82;68.81
61474;BME280;53694;49.784;30.150;2023-09-12T03:24:38;99783.52;;;13.05;67.75
61474;BME280;53694;49.784;30.150;2023-09-12T03:25:40;99783.31;;;13.20;67.02
61474;BME280;53694;49.784;30.150;2023-09-12T03:26:41;99777.44;;;13.22;66.74
61474;BME280;53694;49.784;30.150;2023-09-12T03:27:43;99788.37;;;13.15;66.58
61474;BME280;53694;49.784;30.150;2023-09-12T03:28:44;99785.49;;;13.04;66.89
61474;BME280;53694;49.784;30.150;2023-09-12T03:29:48;99787.58;;;12.84;67.12
61474;BME280;53694;49.784;30.150;2023-09-12T03:30:50;99782.17;;;12.65;67.31
61474;BME280;53694;49.784;30.150;2023-09-12T03:31:51;99788.13;;;12.40;68.17
61474;BME280;53694;49.784;30.150;2023-09-12T03:32:53;99783.79;;;12.16;68.46
61474;BME280;53694;49.784;30.150;2023-09-12T03:33:54;99792.03;;;11.93;69.19
61474;BME280;53694;49.784;30.150;2023-09-12T03:34:56;99794.81;;;11.74;69.88
61474;BME280;53694;49.784;30.150;2023-09-12T03:35:57;99788.91;;;11.53;70.56
61474;BME280;53694;49.784;30.150;2023-09-12T03:37:01;99798.78;;;11.34;71.45
61474;BME280;53694;49.784;30.150;2023-09-12T03:38:03;99796.88;;;11.19;72.05
61474;BME280;53694;49.784;30.150;2023-09-12T03:39:04;99792.81;;;11.13;72.80
61474;BME280;53694;49.784;30.150;2023-09-12T03:40:07;99790.22;;;11.20;73.20
61474;BME280;53694;49.784;30.150;2023-09-12T03:41:09;99797.23;;;11.37;72.74
61474;BME280;53694;49.784;30.150;2023-09-12T03:42:10;99789.06;;;11.60;72.24
61474;BME280;53694;49.784;30.150;2023-09-12T03:43:12;99795.02;;;11.85;71.45
61474;BME280;53694;49.784;30.150;2023-09-12T03:44:14;99804.17;;;12.12;70.81
61474;BME280;53694;49.784;30.150;2023-09-12T03:45:15;99798.70;;;12.38;70.16
61474;BME280;53694;49.784;30.150;2023-09-12T03:46:17;99791.61;;;12.64;69.14
61474;BME280;53694;49.784;30.150;2023-09-12T03:47:18;99803.37;;;12.87;68.28
61474;BME280;53694;49.784;30.150;2023-09-12T03:48:20;99796.55;;;13.08;67.19
61474;BME280;53694;49.784;30.150;2023-09-12T03:49:22;99801.42;;;13.18;66.37
61474;BME280;53694;49.784;30.150;2023-09-12T03:50:24;99794.32;;;13.17;66.42
61474;BME280;53694;49.784;30.150;2023-09-12T03:51:25;99795.39;;;13.09;66.32
61474;BME280;53694;49.784;30.150;2023-09-12T03:52:27;99799.50;;;12.92;66.59
61474;BME280;53694;49.784;30.150;2023-09-12T03:53:28;99798.03;;;12.71;67.08
61474;BME280;53694;49.784;30.150;2023-09-12T03:54:30;99797.65;;;12.46;67.64
61474;BME280;53694;49.784;30.150;2023-09-12T03:55:32;99803.98;;;12.24;68.57
61474;BME280;53694;49.784;30.150;2023-09-12T03:56:33;99802.45;;;12.04;69.32
61474;BME280;53694;49.784;30.150;2023-09-12T03:57:35;99798.16;;;11.83;69.86
61474;BME280;53694;49.784;30.150;2023-09-12T03:58:37;99802.13;;;11.66;70.49
61474;BME280;53694;49.784;30.150;2023-09-12T03:59:38;99803.83;;;11.51;71.09
61474;BME280;53694;49.784;30.150;2023-09-12T04:00:40;99806.28;;;11.37;71.53
61474;BME280;53694;49.784;30.150;2023-09-12T04:01:41;99801.45;;;11.31;72.16
61474;BME280;53694;49.784;30.150;2023-09-12T04:02:43;99799.56;;;11.35;72.31
61474;BME280;53694;49.784;30.150;2023-09-12T04:03:44;99800.63;;;11.49;72.29
61474;BME280;53694;49.784;30.150;2023-09-12T04:04:46;99799.08;;;11.71;72.00
61474;BME280;53694;49.784;30.150;2023-09-12T04:05:48;99803.90;;;11.97;71.23
61474;BME280;53694;49.784;30.150;2023-09-12T04:06:49;99804.39;;;12.26;70.68
61474;BME280;53694;49.784;30.150;2023-09-12T04:07:51;99799.73;;;12.53;70.03
61474;BME280;53694;49.784;30.150;2023-09-12T04:08:52;99803.67;;;12.82;69.01
61474;BME280;53694;49.784;30.150;2023-09-12T04:09:54;99798.51;;;13.07;68.21
61474;BME280;53694;49.784;30.150;2023-09-12T04:10:55;99801.21;;;13.30;67.09
61474;BME280;53694;49.784;30.150;2023-09-12T04:11:57;99799.02;;;13.46;66.43
61474;BME280;53694;49.784;30.150;2023-09-12T04:12:59;99806.14;;;13.47;65.78
61474;BME280;53694;49.784;30.150;2023-09-12T04:14:00;99805.21;;;13.36;65.75
61474;BME280;53694;49.784;30.150;2023-09-12T04:15:02;99805.75;;;13.19;66.14
61474;BME280;53694;49.784;30.150;2023-09-12T04:16:04;99807.06;;;12.98;66.61
61474;BME280;53694;49.784;30.150;2023-09-12T04:17:05;99800.52;;;12.54;67.61
61474;BME280;53694;49.784;30.150;2023-09-12T04:18:07;99800.52;;;12.54;67.61
61474;BME280;53694;49.784;30.150;2023-09-12T04:19:08;99802.12;;;12.32;68.26
61474;BME280;53694;49.784;30.150;2023-09-12T04:20:10;99799.88;;;11.91;69.75
61474;BME280;53694;49.784;30.150;2023-09-12T04:21:12;99799.88;;;11.91;69.75
61474;BME280;53694;49.784;30.150;2023-09-12T04:22:13;99805.82;;;11.74;70.53
61474;BME280;53694;49.784;30.150;2023-09-12T04:23:15;99804.70;;;11.56;71.03
61474;BME280;53694;49.784;30.150;2023-09-12T04:24:17;99810.34;;;11.43;71.59
61474;BME280;53694;49.784;30.150;2023-09-12T04:25:18;99809.03;;;11.37;72.16
61474;BME280;53694;49.784;30.150;2023-09-12T04:26:20;99811.48;;;11.42;72.45
61474;BME280;53694;49.784;30.150;2023-09-12T04:27:21;99810.24;;;11.59;72.29
61474;BME280;53694;49.784;30.150;2023-09-12T04:28:23;99806.41;;;11.83;71.96
61474;BME280;53694;49.784;30.150;2023-09-12T04:29:24;99814.39;;;12.11;71.29
61474;BME280;53694;49.784;30.150;2023-09-12T04:30:26;99808.54;;;12.39;70.72
61474;BME280;53694;49.784;30.150;2023-09-12T04:31:28;99803.42;;;12.64;69.76
61474;BME280;53694;49.784;30.150;2023-09-12T04:32:29;99815.95;;;13.15;68.29
61474;BME280;53694;49.784;30.150;2023-09-12T04:33:31;99815.95;;;13.15;68.29
61474;BME280;53694;49.784;30.150;2023-09-12T04:34:32;99811.06;;;13.31;67.57
61474;BME280;53694;49.784;30.150;2023-09-12T04:35:34;99809.79;;;13.25;67.35
61474;BME280;53694;49.784;30.150;2023-09-12T04:36:36;99809.79;;;13.25;67.35
61474;BME280;53694;49.784;30.150;2023-09-12T04:37:38;99811.94;;;13.09;67.64
61474;BME280;53694;49.784;30.150;2023-09-12T04:38:39;99812.05;;;12.89;68.26
61474;BME280;53694;49.784;30.150;2023-09-12T04:39:41;99810.22;;;12.70;68.87
61474;BME280;53694;49.784;30.150;2023-09-12T04:40:42;99801.25;;;12.50;69.41
61474;BME280;53694;49.784;30.150;2023-09-12T04:41:44;99805.25;;;12.30;70.15
61474;BME280;53694;49.784;30.150;2023-09-12T04:42:45;99805.75;;;12.13;71.06
61474;BME280;53694;49.784;30.150;2023-09-12T04:43:47;99803.55;;;11.99;72.02
61474;BME280;53694;49.784;30.150;2023-09-12T04:44:48;99804.66;;;11.94;72.63
61474;BME280;53694;49.784;30.150;2023-09-12T04:45:50;99811.05;;;12.02;72.62
61474;BME280;53694;49.784;30.150;2023-09-12T04:46:52;99803.13;;;12.20;72.29
61474;BME280;53694;49.784;30.150;2023-09-12T04:47:53;99803.03;;;12.39;71.95
61474;BME280;53694;49.784;30.150;2023-09-12T04:48:55;99803.48;;;12.68;71.76
61474;BME280;53694;49.784;30.150;2023-09-12T04:49:56;99807.84;;;12.99;71.45
61474;BME280;53694;49.784;30.150;2023-09-12T04:50:58;99807.52;;;13.31;70.72
61474;BME280;53694;49.784;30.150;2023-09-12T04:51:59;99809.80;;;13.59;69.53
61474;BME280;53694;49.784;30.150;2023-09-12T04:53:01;99812.25;;;14.05;67.72
61474;BME280;53694;49.784;30.150;2023-09-12T04:54:03;99812.25;;;14.05;67.72
61474;BME280;53694;49.784;30.150;2023-09-12T04:55:06;99804.52;;;14.21;66.84
61474;BME280;53694;49.784;30.150;2023-09-12T04:56:08;99795.83;;;14.22;66.39
61474;BME280;53694;49.784;30.150;2023-09-12T04:57:09;99811.94;;;14.13;66.68
61474;BME280;53694;49.784;30.150;2023-09-12T04:58:11;99805.90;;;14.00;66.90
61474;BME280;53694;49.784;30.150;2023-09-12T04:59:12;99802.97;;;13.83;67.38
61474;BME280;53694;49.784;30.150;2023-09-12T05:00:14;99811.86;;;13.65;67.90
61474;BME280;53694;49.784;30.150;2023-09-12T05:01:16;99813.24;;;13.48;68.57
61474;BME280;53694;49.784;30.150;2023-09-12T05:02:18;99809.89;;;13.32;69.25
61474;BME280;53694;49.784;30.150;2023-09-12T05:03:19;99814.41;;;13.17;69.89
61474;BME280;53694;49.784;30.150;2023-09-12T05:04:21;99812.67;;;13.06;70.62
61474;BME280;53694;49.784;30.150;2023-09-12T05:05:22;99814.92;;;12.96;71.08
61474;BME280;53694;49.784;30.150;2023-09-12T05:06:24;99810.03;;;12.86;71.56
61474;BME280;53694;49.784;30.150;2023-09-12T05:07:26;99816.31;;;12.83;71.85
61474;BME280;53694;49.784;30.150;2023-09-12T05:08:27;99817.67;;;12.96;72.16
61474;BME280;53694;49.784;30.150;2023-09-12T05:09:29;99812.81;;;13.46;71.42
61474;BME280;53694;49.784;30.150;2023-09-12T05:10:31;99812.81;;;13.46;71.42
61474;BME280;53694;49.784;30.150;2023-09-12T05:11:32;99827.77;;;13.79;70.75
61474;BME280;53694;49.784;30.150;2023-09-12T05:12:34;99818.60;;;14.09;69.70
61474;BME280;53694;49.784;30.150;2023-09-12T05:13:35;99820.44;;;14.38;68.85
61474;BME280;53694;49.784;30.150;2023-09-12T05:14:37;99815.95;;;14.67;67.89
61474;BME280;53694;49.784;30.150;2023-09-12T05:15:39;99820.08;;;14.91;67.26
61474;BME280;53694;49.784;30.150;2023-09-12T05:16:40;99818.55;;;15.01;66.53
61474;BME280;53694;49.784;30.150;2023-09-12T05:17:42;99809.84;;;15.03;66.27
61474;BME280;53694;49.784;30.150;2023-09-12T05:18:43;99822.05;;;14.94;66.16
61474;BME280;53694;49.784;30.150;2023-09-12T05:19:45;99817.63;;;14.79;66.44
61474;BME280;53694;49.784;30.150;2023-09-12T05:20:46;99819.48;;;14.64;66.85
61474;BME280;53694;49.784;30.150;2023-09-12T05:21:48;99819.78;;;14.48;67.39
61474;BME280;53694;49.784;30.150;2023-09-12T05:22:49;99811.33;;;14.34;67.94
61474;BME280;53694;49.784;30.150;2023-09-12T05:23:51;99815.95;;;14.19;68.41
61474;BME280;53694;49.784;30.150;2023-09-12T05:24:52;99824.88;;;14.06;68.93
61474;BME280;53694;49.784;30.150;2023-09-12T05:25:54;99819.92;;;13.81;69.74
61474;BME280;53694;49.784;30.150;2023-09-12T05:26:55;99819.92;;;13.81;69.74